Whiteoak, MO

6:04 PM CDT on April 19, 2015 (GMT -0500)
Corning | | Change Station
CLOSE
Current Station
Airport
Location: Corning,
Elevation: 292 ft
Nearby Weather Stations

Elev 292 ft 36.40 °N, 90.65 °W | Updated 9 minutes ago

Partly Cloudy
Partly Cloudy
72 °F
Feels Like 72 °F
N
9
Wind Variable Wind from North
Gusts 13 mph

Today
High -- | Low -- °F
--% Chance of Precip.
Yesterday
High -- | Low -- °F
Precip. -- in
6:22 AM 7:37 PM
New Moon, 2% visible
Pressure 29.55 in
Visibility 10.0 miles
Clouds
Dew Point 57 °F
Humidity 60%
Rainfall 0.40 in
Snow Depth Not available.
UV Not available.
Pollen 8.10 out of 12
Air Quality Not available.
Flu Activity Local Activity
METAR K4M9 192255Z AUTO 36008KT 10SM 22/14 A2955 RMK AO2

More Conditions Fewer Conditions

Pressure 29.55 in
Visibility 10.0 miles
Clouds
Dew Point 57 °F
Humidity 60%
Rainfall 0.40 in
Snow Depth Not available.
UV Not available.
Pollen 8.10 out of 12
Air Quality Not available.
Flu Activity Local Activity
METAR K4M9 192255Z AUTO 36008KT 10SM 22/14 A2955 RMK AO2

More Conditions Fewer Conditions

10-Day Weather Forecast

Almanac

Astronomy

Apr. 19, 2015 Rise Set
Actual Time
Civil Twilight
Nautical Twilight
Astronomical Twilight
Moon
Length of Visible Light
Length of Day
Tomorrow will be .
, % of the Moon is Illuminated

Today's Extremes

State Highs State Lows

Community

WunderPhotos

Upload Photos

1,815,012 photos uploaded!

WunderBlogs® & News

Nearby

Air Quality

  Air Quality AQ Index Pollutant
Not available.

Snow Depth

Station Depth Elevation

Earthquake Activity

City Distance Mag. Time & Date
Minimum magnitude displayed is 2.5.

Coastal Water Temperatures

Place Temperature

Stations

Nearby Weather Stations

Station Location Temp. Windchill Dew Point Humidity Wind Precip. Elev Updated Type